sensor_id;sensor_type;location;lat;lon;timestamp;P1;durP1;ratioP1;P2;durP2;ratioP2
39308;SDS011;26019;47.510;19.122;2024-02-15T00:05:48;38.95;;;19.63;;
39308;SDS011;26019;47.510;19.122;2024-02-15T00:15:50;31.80;;;18.95;;
39308;SDS011;26019;47.510;19.122;2024-02-15T00:25:52;35.40;;;18.30;;
39308;SDS011;26019;47.510;19.122;2024-02-15T00:35:54;31.20;;;18.90;;
39308;SDS011;26019;47.510;19.122;2024-02-15T00:45:56;34.15;;;18.35;;
39308;SDS011;26019;47.510;19.122;2024-02-15T00:55:58;38.17;;;20.70;;
39308;SDS011;26019;47.510;19.122;2024-02-15T01:06:00;39.10;;;20.95;;
39308;SDS011;26019;47.510;19.122;2024-02-15T01:16:02;34.53;;;18.38;;
39308;SDS011;26019;47.510;19.122;2024-02-15T01:26:04;37.23;;;20.40;;
39308;SDS011;26019;47.510;19.122;2024-02-15T01:36:06;36.80;;;19.92;;
39308;SDS011;26019;47.510;19.122;2024-02-15T01:46:08;38.60;;;19.88;;
39308;SDS011;26019;47.510;19.122;2024-02-15T02:06:14;32.90;;;17.92;;
39308;SDS011;26019;47.510;19.122;2024-02-15T02:26:28;32.33;;;19.55;;
39308;SDS011;26019;47.510;19.122;2024-02-15T02:36:32;34.05;;;20.00;;
39308;SDS011;26019;47.510;19.122;2024-02-15T02:46:34;35.85;;;19.15;;
39308;SDS011;26019;47.510;19.122;2024-02-15T02:56:36;32.90;;;19.43;;
39308;SDS011;26019;47.510;19.122;2024-02-15T03:06:38;32.13;;;18.70;;
39308;SDS011;26019;47.510;19.122;2024-02-15T03:16:44;35.17;;;19.40;;
39308;SDS011;26019;47.510;19.122;2024-02-15T03:26:46;39.03;;;20.40;;
39308;SDS011;26019;47.510;19.122;2024-02-15T03:36:48;33.07;;;17.37;;
39308;SDS011;26019;47.510;19.122;2024-02-15T03:46:55;30.88;;;16.90;;
39308;SDS011;26019;47.510;19.122;2024-02-15T03:56:59;38.08;;;18.80;;
39308;SDS011;26019;47.510;19.122;2024-02-15T04:07:02;33.85;;;17.23;;
39308;SDS011;26019;47.510;19.122;2024-02-15T04:17:06;28.13;;;15.70;;
39308;SDS011;26019;47.510;19.122;2024-02-15T04:27:09;29.52;;;15.63;;
39308;SDS011;26019;47.510;19.122;2024-02-15T04:37:13;29.65;;;16.80;;
39308;SDS011;26019;47.510;19.122;2024-02-15T04:47:15;26.88;;;15.50;;
39308;SDS011;26019;47.510;19.122;2024-02-15T04:57:17;30.17;;;17.60;;
39308;SDS011;26019;47.510;19.122;2024-02-15T05:07:19;30.88;;;16.55;;
39308;SDS011;26019;47.510;19.122;2024-02-15T05:17:21;30.95;;;16.75;;
39308;SDS011;26019;47.510;19.122;2024-02-15T05:27:23;32.70;;;18.30;;
39308;SDS011;26019;47.510;19.122;2024-02-15T05:37:25;34.05;;;17.20;;
39308;SDS011;26019;47.510;19.122;2024-02-15T05:47:28;35.28;;;18.38;;
39308;SDS011;26019;47.510;19.122;2024-02-15T05:57:30;39.17;;;19.05;;
39308;SDS011;26019;47.510;19.122;2024-02-15T06:07:32;34.78;;;18.17;;
39308;SDS011;26019;47.510;19.122;2024-02-15T06:17:37;33.87;;;18.63;;
39308;SDS011;26019;47.510;19.122;2024-02-15T06:27:40;39.70;;;18.40;;
39308;SDS011;26019;47.510;19.122;2024-02-15T06:37:44;28.63;;;17.98;;
39308;SDS011;26019;47.510;19.122;2024-02-15T06:48:10;30.55;;;16.73;;
39308;SDS011;26019;47.510;19.122;2024-02-15T06:58:19;28.75;;;17.17;;
39308;SDS011;26019;47.510;19.122;2024-02-15T07:08:22;34.00;;;17.70;;
39308;SDS011;26019;47.510;19.122;2024-02-15T07:18:26;33.58;;;17.48;;
39308;SDS011;26019;47.510;19.122;2024-02-15T07:28:31;38.85;;;18.60;;
39308;SDS011;26019;47.510;19.122;2024-02-15T07:38:32;36.47;;;18.42;;
39308;SDS011;26019;47.510;19.122;2024-02-15T07:58:38;37.38;;;18.67;;
39308;SDS011;26019;47.510;19.122;2024-02-15T08:08:50;32.20;;;18.10;;
39308;SDS011;26019;47.510;19.122;2024-02-15T08:18:55;30.85;;;15.68;;
39308;SDS011;26019;47.510;19.122;2024-02-15T08:28:58;30.90;;;18.37;;
39308;SDS011;26019;47.510;19.122;2024-02-15T08:39:00;33.03;;;17.00;;
39308;SDS011;26019;47.510;19.122;2024-02-15T08:49:02;36.20;;;18.57;;
39308;SDS011;26019;47.510;19.122;2024-02-15T08:59:05;28.45;;;17.60;;
39308;SDS011;26019;47.510;19.122;2024-02-15T09:09:07;37.65;;;20.67;;
39308;SDS011;26019;47.510;19.122;2024-02-15T09:19:08;31.75;;;18.98;;
39308;SDS011;26019;47.510;19.122;2024-02-15T09:29:13;33.88;;;20.77;;
39308;SDS011;26019;47.510;19.122;2024-02-15T09:49:24;29.77;;;17.08;;
39308;SDS011;26019;47.510;19.122;2024-02-15T09:59:27;32.67;;;18.80;;
39308;SDS011;26019;47.510;19.122;2024-02-15T10:09:31;33.25;;;18.15;;
39308;SDS011;26019;47.510;19.122;2024-02-15T10:19:33;29.58;;;17.63;;
39308;SDS011;26019;47.510;19.122;2024-02-15T10:29:36;32.67;;;16.83;;
39308;SDS011;26019;47.510;19.122;2024-02-15T10:39:39;33.03;;;18.15;;
39308;SDS011;26019;47.510;19.122;2024-02-15T10:49:46;35.47;;;18.38;;
39308;SDS011;26019;47.510;19.122;2024-02-15T10:59:55;23.98;;;16.00;;
39308;SDS011;26019;47.510;19.122;2024-02-15T11:09:59;36.95;;;17.45;;
39308;SDS011;26019;47.510;19.122;2024-02-15T11:20:02;25.00;;;15.73;;
39308;SDS011;26019;47.510;19.122;2024-02-15T11:30:24;21.35;;;15.43;;
39308;SDS011;26019;47.510;19.122;2024-02-15T12:00:49;24.17;;;15.05;;
39308;SDS011;26019;47.510;19.122;2024-02-15T12:11:13;27.42;;;15.32;;
39308;SDS011;26019;47.510;19.122;2024-02-15T12:21:35;22.15;;;13.18;;
39308;SDS011;26019;47.510;19.122;2024-02-15T12:31:43;20.13;;;13.40;;
39308;SDS011;26019;47.510;19.122;2024-02-15T12:41:49;24.63;;;14.52;;
39308;SDS011;26019;47.510;19.122;2024-02-15T12:51:53;19.35;;;12.95;;
39308;SDS011;26019;47.510;19.122;2024-02-15T13:01:56;18.80;;;11.80;;
39308;SDS011;26019;47.510;19.122;2024-02-15T13:11:58;21.17;;;12.47;;
39308;SDS011;26019;47.510;19.122;2024-02-15T13:22:00;19.43;;;11.23;;
39308;SDS011;26019;47.510;19.122;2024-02-15T13:32:02;23.70;;;11.50;;
39308;SDS011;26019;47.510;19.122;2024-02-15T13:42:05;17.05;;;11.23;;
39308;SDS011;26019;47.510;19.122;2024-02-15T13:52:08;18.77;;;12.33;;
39308;SDS011;26019;47.510;19.122;2024-02-15T14:02:14;25.48;;;13.23;;
39308;SDS011;26019;47.510;19.122;2024-02-15T14:12:16;19.58;;;12.25;;
39308;SDS011;26019;47.510;19.122;2024-02-15T14:22:19;23.80;;;13.30;;
39308;SDS011;26019;47.510;19.122;2024-02-15T14:32:25;25.30;;;14.77;;
39308;SDS011;26019;47.510;19.122;2024-02-15T14:42:47;22.48;;;13.98;;
39308;SDS011;26019;47.510;19.122;2024-02-15T14:52:57;26.95;;;15.80;;
39308;SDS011;26019;47.510;19.122;2024-02-15T15:02:59;25.63;;;15.67;;
39308;SDS011;26019;47.510;19.122;2024-02-15T15:13:02;28.27;;;15.32;;
39308;SDS011;26019;47.510;19.122;2024-02-15T15:23:04;26.20;;;16.27;;
39308;SDS011;26019;47.510;19.122;2024-02-15T15:33:08;25.60;;;15.18;;
39308;SDS011;26019;47.510;19.122;2024-02-15T15:53:15;21.83;;;14.98;;
39308;SDS011;26019;47.510;19.122;2024-02-15T16:03:19;29.52;;;15.85;;
39308;SDS011;26019;47.510;19.122;2024-02-15T16:13:29;32.08;;;16.50;;
39308;SDS011;26019;47.510;19.122;2024-02-15T16:23:31;28.25;;;14.82;;
39308;SDS011;26019;47.510;19.122;2024-02-15T16:33:33;27.38;;;16.35;;
39308;SDS011;26019;47.510;19.122;2024-02-15T16:43:36;31.83;;;17.70;;
39308;SDS011;26019;47.510;19.122;2024-02-15T16:53:39;33.37;;;19.53;;
39308;SDS011;26019;47.510;19.122;2024-02-15T17:03:43;31.17;;;18.87;;
39308;SDS011;26019;47.510;19.122;2024-02-15T17:13:46;32.97;;;19.58;;
39308;SDS011;26019;47.510;19.122;2024-02-15T17:23:49;28.13;;;18.75;;
39308;SDS011;26019;47.510;19.122;2024-02-15T17:33:52;31.20;;;20.17;;
39308;SDS011;26019;47.510;19.122;2024-02-15T17:43:54;32.47;;;18.80;;
39308;SDS011;26019;47.510;19.122;2024-02-15T17:54:01;29.33;;;17.73;;
39308;SDS011;26019;47.510;19.122;2024-02-15T18:04:03;32.50;;;19.23;;
39308;SDS011;26019;47.510;19.122;2024-02-15T18:14:07;29.63;;;19.77;;
39308;SDS011;26019;47.510;19.122;2024-02-15T18:24:10;33.03;;;19.65;;
39308;SDS011;26019;47.510;19.122;2024-02-15T18:34:13;35.10;;;20.90;;
39308;SDS011;26019;47.510;19.122;2024-02-15T18:44:16;36.08;;;19.85;;
39308;SDS011;26019;47.510;19.122;2024-02-15T18:54:20;39.47;;;22.85;;
39308;SDS011;26019;47.510;19.122;2024-02-15T19:04:24;41.37;;;21.43;;
39308;SDS011;26019;47.510;19.122;2024-02-15T19:14:28;39.17;;;21.63;;
39308;SDS011;26019;47.510;19.122;2024-02-15T19:24:33;32.10;;;21.38;;
39308;SDS011;26019;47.510;19.122;2024-02-15T19:34:36;37.28;;;21.25;;
39308;SDS011;26019;47.510;19.122;2024-02-15T19:44:47;34.33;;;21.20;;
39308;SDS011;26019;47.510;19.122;2024-02-15T19:54:53;35.25;;;22.00;;
39308;SDS011;26019;47.510;19.122;2024-02-15T20:04:56;34.60;;;19.80;;
39308;SDS011;26019;47.510;19.122;2024-02-15T20:15:02;35.38;;;21.83;;
39308;SDS011;26019;47.510;19.122;2024-02-15T20:25:05;31.13;;;20.48;;
39308;SDS011;26019;47.510;19.122;2024-02-15T20:45:16;38.25;;;22.23;;
39308;SDS011;26019;47.510;19.122;2024-02-15T20:55:21;35.63;;;21.13;;
39308;SDS011;26019;47.510;19.122;2024-02-15T21:05:23;35.10;;;21.33;;
39308;SDS011;26019;47.510;19.122;2024-02-15T21:15:26;41.85;;;21.80;;
39308;SDS011;26019;47.510;19.122;2024-02-15T21:25:30;37.95;;;21.65;;
39308;SDS011;26019;47.510;19.122;2024-02-15T21:35:56;36.55;;;22.35;;
39308;SDS011;26019;47.510;19.122;2024-02-15T21:45:58;41.13;;;22.35;;
39308;SDS011;26019;47.510;19.122;2024-02-15T21:56:02;38.25;;;22.08;;
39308;SDS011;26019;47.510;19.122;2024-02-15T22:06:06;43.55;;;22.67;;
39308;SDS011;26019;47.510;19.122;2024-02-15T22:16:08;37.08;;;23.25;;
39308;SDS011;26019;47.510;19.122;2024-02-15T22:36:22;34.70;;;20.77;;
39308;SDS011;26019;47.510;19.122;2024-02-15T22:46:25;40.08;;;22.75;;
39308;SDS011;26019;47.510;19.122;2024-02-15T22:56:27;38.75;;;20.77;;
39308;SDS011;26019;47.510;19.122;2024-02-15T23:06:29;36.38;;;22.45;;
39308;SDS011;26019;47.510;19.122;2024-02-15T23:16:31;39.63;;;21.98;;
39308;SDS011;26019;47.510;19.122;2024-02-15T23:26:41;37.97;;;21.23;;
39308;SDS011;26019;47.510;19.122;2024-02-15T23:36:43;34.42;;;21.25;;
39308;SDS011;26019;47.510;19.122;2024-02-15T23:47:03;34.65;;;21.33;;
39308;SDS011;26019;47.510;19.122;2024-02-15T23:57:06;36.78;;;20.65;;
